Temp: 12.1°C   Hum: 87%
  Wind: 0.0mph   Dir: W (276°)
  Rain: 0.0mm Rate: 0.0mm/hr
  Pressure: 1027.1mb

Historic data

Bath Spa Weather Station Historical Data
Daily Summary for October 10, 2021 Units:  English    Metric   Both
Daily Weekly Monthly Yearly Custom
  High: Low: Average:
Temperature: 63.9 °F 48.7 °F 57.2 °F
Dew Point: 55.4 °F 45.2 °F 52.8 °F
Humidity: 92% 68% 83%
Wind Speed: 10.3mph 0mph 2mph
Wind Gust: 18mph - -
Wind- - ESE
Pressure: 30.50 in 30.40 in -
Precipitation: 0.00 in    
Historical Graphs
 
 
Tabular Data for October 10, 2021
Time Temperature Dew Point Pressure Wind Wind Speed Wind Gust Humidity Rainfall Rate (Hourly) solar
00:09 55.2 °F 53 °F 30.42 in Calm     89.3% 0.00 in 0 W/m2
00:14 55.2 °F 52.9 °F 30.42 in Calm     89% 0.00 in 0 W/m2
00:19 55.2 °F 52.9 °F 30.42 in Calm     89% 0.00 in 0 W/m2
00:24 55.3 °F 53.1 °F 30.42 in Calm     89.4% 0.00 in 0 W/m2
00:29 55.4 °F 53.1 °F 30.42 in Calm     89% 0.00 in 0 W/m2
00:34 55.4 °F 53.1 °F 30.42 in Calm     89% 0.00 in 0 W/m2
00:39 55.4 °F 53.1 °F 30.42 in Calm     89% 0.00 in 0 W/m2
00:44 55.4 °F 53.1 °F 30.42 in Calm     89% 0.00 in 0 W/m2
00:49 55.6 °F 53.2 °F 30.41 in Calm     89% 0.00 in 0 W/m2
00:54 55.5 °F 53.2 °F 30.41 in Calm     89% 0.00 in 0 W/m2
00:59 55.4 °F 53.1 °F 30.42 in Calm     89% 0.00 in 0 W/m2
01:04 55.4 °F 53.1 °F 30.42 in Calm     89% 0.00 in 0 W/m2
01:09 55.2 °F 53.1 °F 30.41 in Calm     89.8% 0.00 in 0 W/m2
01:14 55.2 °F 53.2 °F 30.42 in Calm     90% 0.00 in 0 W/m2
01:19 55.2 °F 53.2 °F 30.41 in Calm     90% 0.00 in 0 W/m2
01:24 55.2 °F 53.2 °F 30.41 in Calm     90% 0.00 in 0 W/m2
01:29 55.2 °F 53.2 °F 30.42 in Calm     90% 0.00 in 0 W/m2
01:34 55.3 °F 53.3 °F 30.42 in Calm     90% 0.00 in 0 W/m2
01:39 55.4 °F 53.4 °F 30.42 in Calm     90% 0.00 in 0 W/m2
01:44 55.4 °F 53.4 °F 30.42 in Calm     90% 0.00 in 0 W/m2
01:49 55.4 °F 53.4 °F 30.42 in Calm     90% 0.00 in 0 W/m2
01:54 55.4 °F 53.4 °F 30.42 in Calm     90% 0.00 in 0 W/m2
01:59 55.4 °F 53.4 °F 30.42 in Calm     90% 0.00 in 0 W/m2
02:04 55.3 °F 53.3 °F 30.42 in Calm     90% 0.00 in 0 W/m2
02:09 55.2 °F 53.2 °F 30.42 in Calm     90% 0.00 in 0 W/m2
02:14 55.2 °F 53.2 °F 30.42 in Calm     90% 0.00 in 0 W/m2
02:19 55.2 °F 53.2 °F 30.42 in Calm     90% 0.00 in 0 W/m2
02:24 55.3 °F 53.3 °F 30.42 in Calm     90% 0.00 in 0 W/m2
02:29 55.4 °F 53.4 °F 30.42 in Calm     90% 0.00 in 0 W/m2
02:34 55.6 °F 53.6 °F 30.42 in Calm     90% 0.00 in 0 W/m2
02:39 55.6 °F 53.6 °F 30.41 in Calm     90% 0.00 in 0 W/m2
02:44 55.6 °F 53.6 °F 30.41 in Calm     90% 0.00 in 0 W/m2
02:49 55.6 °F 53.6 °F 30.41 in Calm     90% 0.00 in 0 W/m2
02:54 55.5 °F 53.5 °F 30.41 in Calm     90% 0.00 in 0 W/m2
02:59 55.4 °F 53.4 °F 30.42 in Calm     90% 0.00 in 0 W/m2
03:04 55.3 °F 53.3 °F 30.42 in Calm     90% 0.00 in 0 W/m2
03:09 55.2 °F 53.2 °F 30.42 in Calm   1 mph 90% 0.00 in 0 W/m2
03:14 55.2 °F 53.2 °F 30.42 in West 0.2 mph 2 mph 90% 0.00 in 0 W/m2
03:19 55.2 °F 53.3 °F 30.42 in Calm   2 mph 90.2% 0.00 in 0 W/m2
03:24 55.2 °F 53.5 °F 30.42 in Calm     90.8% 0.00 in 0 W/m2
03:29 55.3 °F 53.7 °F 30.42 in Calm     91% 0.00 in 0 W/m2
03:34 55.4 °F 53.8 °F 30.42 in Calm     91% 0.00 in 0 W/m2
03:39 55.4 °F 53.8 °F 30.42 in Calm     91% 0.00 in 0 W/m2
03:44 55.4 °F 53.8 °F 30.41 in Calm     91% 0.00 in 0 W/m2
03:49 55.4 °F 53.8 °F 30.41 in Calm     91% 0.00 in 0 W/m2
03:54 55.4 °F 53.8 °F 30.41 in Calm     91% 0.00 in 0 W/m2
03:59 55.5 °F 53.9 °F 30.41 in Calm     91% 0.00 in 0 W/m2
04:04 55.4 °F 53.8 °F 30.41 in Calm     91% 0.00 in 0 W/m2
04:09 55.4 °F 53.8 °F 30.41 in Calm     91% 0.00 in 0 W/m2
04:14 55.4 °F 53.8 °F 30.41 in Calm     91% 0.00 in 0 W/m2
04:19 55.4 °F 53.8 °F 30.41 in Calm     91% 0.00 in 0 W/m2
04:24 55.3 °F 53.8 °F 30.40 in Calm     91% 0.00 in 0 W/m2
04:29 55.4 °F 53.8 °F 30.40 in Calm     91% 0.00 in 0 W/m2
04:34 55.4 °F 53.8 °F 30.41 in Calm     91% 0.00 in 0 W/m2
04:39 55.3 °F 53.7 °F 30.41 in Calm     91% 0.00 in 0 W/m2
04:44 55.2 °F 53.6 °F 30.41 in Calm     91% 0.00 in 0 W/m2
04:49 55.2 °F 53.6 °F 30.41 in Calm     91% 0.00 in 0 W/m2
04:54 55.2 °F 53.6 °F 30.41 in Calm     91% 0.00 in 0 W/m2
04:59 55.1 °F 53.5 °F 30.41 in Calm     91% 0.00 in 0 W/m2
05:04 55 °F 53.4 °F 30.41 in Calm     91% 0.00 in 0 W/m2
05:09 55 °F 53.4 °F 30.41 in Calm     91% 0.00 in 0 W/m2
05:14 55.2 °F 53.6 °F 30.41 in Calm     91% 0.00 in 0 W/m2
05:19 55.1 °F 53.5 °F 30.41 in Calm     91% 0.00 in 0 W/m2
05:24 55 °F 53.4 °F 30.41 in Calm     91% 0.00 in 0 W/m2
05:29 55 °F 53.4 °F 30.41 in Calm     91% 0.00 in 0 W/m2
05:34 55 °F 53.4 °F 30.41 in Calm     91% 0.00 in 0 W/m2
05:39 55 °F 53.4 °F 30.41 in Calm     91% 0.00 in 0 W/m2
05:44 55 °F 53.4 °F 30.41 in Calm   1 mph 91% 0.00 in 0 W/m2
05:49 55 °F 53.4 °F 30.41 in Calm     91% 0.00 in 0 W/m2
05:54 55 °F 53.4 °F 30.41 in Calm     91% 0.00 in 0 W/m2
05:59 55 °F 53.4 °F 30.41 in Calm     91% 0.00 in 0 W/m2
06:04 55 °F 53.4 °F 30.41 in Calm     91% 0.00 in 0 W/m2
06:09 55 °F 53.6 °F 30.41 in Calm     92% 0.00 in 0 W/m2
06:14 55 °F 53.6 °F 30.41 in Calm     92% 0.00 in 0 W/m2
06:19 55 °F 53.6 °F 30.41 in Calm     91.8% 0.00 in 0 W/m2
06:24 55 °F 53.6 °F 30.41 in Calm     91.8% 0.00 in 0 W/m2
06:29 55 °F 53.6 °F 30.41 in Calm     91.8% 0.00 in 0 W/m2
06:34 55 °F 53.6 °F 30.41 in Calm     92% 0.00 in 0 W/m2
06:39 55 °F 53.6 °F 30.41 in Calm     92% 0.00 in 0 W/m2
06:44 55 °F 53.6 °F 30.41 in Calm     92% 0.00 in 0 W/m2
06:49 55 °F 53.6 °F 30.42 in Calm     92% 0.00 in 0 W/m2
06:54 55 °F 53.6 °F 30.42 in Calm     92% 0.00 in 0 W/m2
06:59 55 °F 53.6 °F 30.42 in Calm     92% 0.00 in 0 W/m2
07:04 55 °F 53.6 °F 30.42 in Calm   1 mph 92% 0.00 in 0 W/m2
07:09 54.9 °F 53.4 °F 30.42 in Calm   1 mph 92% 0.00 in 0 W/m2
07:14 54.9 °F 53.4 °F 30.42 in Calm     92% 0.00 in 0 W/m2
07:19 54.9 °F 53.4 °F 30.42 in Calm     92% 0.00 in 0 W/m2
07:24 54.9 °F 53.5 °F 30.42 in Calm     92% 0.00 in 0 W/m2
07:29 55.4 °F 53.9 °F 30.42 in Calm     92% 0.00 in 0 W/m2
07:34 55.7 °F 54.2 °F 30.42 in Calm     92% 0.00 in 0 W/m2
07:39 55.8 °F 54.3 °F 30.42 in Calm     92% 0.00 in 7 W/m2
07:44 56 °F 54.6 °F 30.42 in Calm     92% 0.00 in 9 W/m2
07:49 56 °F 54.6 °F 30.42 in Calm     92% 0.00 in 14 W/m2
07:54 55.7 °F 54.2 °F 30.42 in Calm     92% 0.00 in 19 W/m2
07:59 55.5 °F 54 °F 30.43 in Calm     92% 0.00 in 26 W/m2
08:04 55.4 °F 54 °F 30.43 in West 0.4 mph 3 mph 92% 0.00 in 30 W/m2
08:09 55.6 °F 54.1 °F 30.43 in Calm   2 mph 92% 0.00 in 33 W/m2
08:14 55.6 °F 54.1 °F 30.43 in Calm   1 mph 92% 0.00 in 44 W/m2
08:19 55.7 °F 54.2 °F 30.43 in Calm   1 mph 92% 0.00 in 54 W/m2
08:24 55.8 °F 54.3 °F 30.43 in Calm   1 mph 92% 0.00 in 62 W/m2
08:29 55.8 °F 54.3 °F 30.43 in Calm   1 mph 92% 0.00 in 67 W/m2
08:34 55.9 °F 54.5 °F 30.43 in West 0.2 mph 1 mph 92% 0.00 in 70 W/m2
08:39 56.2 °F 54.8 °F 30.43 in West 1.2 mph 8 mph 92% 0.00 in 76 W/m2
08:44 56.7 °F 55.2 °F 30.43 in WSW 2.5 mph 8 mph 92% 0.00 in 69 W/m2
08:49 56.8 °F 55.4 °F 30.44 in WSW 3.2 mph 6 mph 92% 0.00 in 72 W/m2
08:54 56.9 °F 55.4 °F 30.44 in West 4.2 mph 8 mph 91.8% 0.00 in 77 W/m2
08:59 57 °F 55.3 °F 30.44 in WNW 4.7 mph 9 mph 91.2% 0.00 in 93 W/m2
09:04 57 °F 55.2 °F 30.44 in NW 5.6 mph 10 mph 91% 0.00 in 93 W/m2
09:09 57.3 °F 55.4 °F 30.44 in NW 4.4 mph 7 mph 90.6% 0.00 in 97 W/m2
09:14 57.4 °F 55.4 °F 30.44 in NW 6.2 mph 10 mph 90% 0.00 in 93 W/m2
09:19 57.4 °F 55.4 °F 30.45 in NNW 4.8 mph 13 mph 90% 0.00 in 81 W/m2
09:24 57.1 °F 54.9 °F 30.45 in NNE 6.2 mph 15 mph 89.3% 0.00 in 76 W/m2
09:29 57 °F 54.7 °F 30.45 in NNE 5.3 mph 13 mph 89% 0.00 in 62 W/m2
09:34 56.8 °F 54.5 °F 30.45 in North 4.3 mph 10 mph 89% 0.00 in 54 W/m2
09:39 56.8 °F 54.5 °F 30.45 in North 5.9 mph 10 mph 89% 0.00 in 90 W/m2
09:44 56.8 °F 54.5 °F 30.45 in North 6.8 mph 10 mph 89% 0.00 in 202 W/m2
09:49 57.3 °F 54.9 °F 30.45 in North 6.3 mph 10 mph 88.8% 0.00 in 225 W/m2
09:54 57.7 °F 55 °F 30.45 in North 7.4 mph 11 mph 88% 0.00 in 290 W/m2
09:59 58 °F 55.1 °F 30.45 in North 7 mph 16 mph 87.2% 0.00 in 302 W/m2
10:04 57.9 °F 54.7 °F 30.45 in North 7 mph 17 mph 86% 0.00 in 262 W/m2
10:09 57.9 °F 54.5 °F 30.45 in NNE 6.7 mph 17 mph 85.6% 0.00 in 153 W/m2
10:14 57.7 °F 54.1 °F 30.45 in NNE 4.8 mph 12 mph 85% 0.00 in 214 W/m2
10:19 57.7 °F 53.9 °F 30.46 in North 6.6 mph 15 mph 84.2% 0.00 in 230 W/m2
10:24 57.7 °F 53.4 °F 30.46 in North 10.3 mph 17 mph 83% 0.00 in 239 W/m2
10:29 57.6 °F 53.2 °F 30.46 in NNE 8.4 mph 17 mph 83% 0.00 in 220 W/m2
10:34 57.6 °F 53.2 °F 30.46 in NNE 7.8 mph 14 mph 83% 0.00 in 287 W/m2
10:39 58 °F 53.6 °F 30.46 in NNE 6.8 mph 14 mph 82.8% 0.00 in 343 W/m2
10:44 58.5 °F 53.6 °F 30.46 in NNE 6.4 mph 15 mph 81.4% 0.00 in 355 W/m2
10:49 58.5 °F 53.7 °F 30.46 in North 9.6 mph 15 mph 81% 0.00 in 364 W/m2
10:54 58.6 °F 53.8 °F 30.46 in North 7.1 mph 15 mph 81% 0.00 in 373 W/m2
10:59 59.2 °F 54.2 °F 30.46 in North 8.4 mph 17 mph 81% 0.00 in 381 W/m2
11:04 59.3 °F 54.1 °F 30.46 in NNE 6.4 mph 15 mph 80.2% 0.00 in 394 W/m2
11:09 59.3 °F 54 °F 30.46 in NNE 6.7 mph 15 mph 79.8% 0.00 in 399 W/m2
11:14 59.4 °F 54.2 °F 30.46 in NNE 5.8 mph 13 mph 80% 0.00 in 413 W/m2
11:19 59.6 °F 54.3 °F 30.46 in NNE 5.8 mph 12 mph 79.6% 0.00 in 422 W/m2
11:24 59.7 °F 54.1 °F 30.46 in North 7 mph 10 mph 79% 0.00 in 429 W/m2
11:29 59.8 °F 54.3 °F 30.46 in North 8.4 mph 18 mph 79.2% 0.00 in 439 W/m2
11:34 59.7 °F 54.1 °F 30.46 in North 8.6 mph 18 mph 79% 0.00 in 448 W/m2
11:39 59.5 °F 54 °F 30.46 in NNE 7.6 mph 15 mph 79% 0.00 in 461 W/m2
11:44 60.1 °F 54.4 °F 30.46 in NNE 7.4 mph 13 mph 78.8% 0.00 in 455 W/m2
11:49 60.2 °F 54.2 °F 30.46 in North 7.4 mph 13 mph 78% 0.00 in 466 W/m2
11:54 60.4 °F 54.5 °F 30.46 in North 6.2 mph 12 mph 78% 0.00 in 475 W/m2
11:59 60.4 °F 54.5 °F 30.46 in North 6.8 mph 12 mph 78% 0.00 in 480 W/m2
12:04 60.6 °F 54.7 °F 30.46 in North 3.6 mph 11 mph 78.2% 0.00 in 480 W/m2
12:09 60.7 °F 54.8 °F 30.45 in NNE 3.7 mph 9 mph 78% 0.00 in 468 W/m2
12:14 60.9 °F 54.7 °F 30.45 in NNE 4.5 mph 10 mph 77.4% 0.00 in 501 W/m2
12:19 61.1 °F 54.9 °F 30.46 in NNE 2.4 mph 8 mph 77.4% 0.00 in 520 W/m2
12:24 61.4 °F 55.1 °F 30.46 in NNE 3.6 mph 11 mph 77.4% 0.00 in 494 W/m2
12:29 61.2 °F 54.8 °F 30.46 in NNW 3.7 mph 9 mph 77.2% 0.00 in 134 W/m2
12:34 60.8 °F 54.5 °F 30.46 in NNE 1.8 mph 8 mph 77.2% 0.00 in 179 W/m2
12:39 61.5 °F 55.2 °F 30.46 in North 4 mph 9 mph 77.5% 0.00 in 137 W/m2
12:44 61.3 °F 54.5 °F 30.46 in NNW 2 mph 9 mph 76.2% 0.00 in 128 W/m2
12:49 61.2 °F 54.7 °F 30.45 in NNW 1.3 mph 6 mph 77% 0.00 in 113 W/m2
12:54 61.2 °F 54.7 °F 30.46 in NNW 2.1 mph 6 mph 77% 0.00 in 109 W/m2
12:59 60.9 °F 54.6 °F 30.46 in NNW 2 mph 6 mph 77% 0.00 in 123 W/m2
13:04 60.5 °F 54.2 °F 30.46 in NNW 1.3 mph 6 mph 77% 0.00 in 125 W/m2
13:09 60.4 °F 54.1 °F 30.45 in NNW 1.2 mph 4 mph 77% 0.00 in 197 W/m2
13:14 61.2 °F 54.7 °F 30.45 in NNW 2.9 mph 7 mph 76.8% 0.00 in 631 W/m2
13:19 61.2 °F 54.3 °F 30.45 in NNW 3.7 mph 10 mph 75.6% 0.00 in 167 W/m2
13:24 60.7 °F 54 °F 30.45 in NNW 3.5 mph 9 mph 76% 0.00 in 223 W/m2
13:29 61.2 °F 54.6 °F 30.45 in North 5.8 mph 11 mph 76.6% 0.00 in 585 W/m2
13:34 61.2 °F 54.2 °F 30.45 in North 4.1 mph 11 mph 75.6% 0.00 in 543 W/m2
13:39 61.9 °F 54.7 °F 30.45 in NNW 4.8 mph 9 mph 75% 0.00 in 548 W/m2
13:44 61.5 °F 54 °F 30.45 in NNW 5.2 mph 10 mph 74% 0.00 in 244 W/m2
13:49 61.3 °F 54 °F 30.45 in NNW 2.3 mph 6 mph 74.6% 0.00 in 160 W/m2
13:54 61.6 °F 54.2 °F 30.45 in NNW 3.3 mph 8 mph 74.4% 0.00 in 529 W/m2
13:59 62.2 °F 54.4 °F 30.45 in NNW 6.6 mph 10 mph 73.4% 0.00 in 529 W/m2
14:04 62.3 °F 54.6 °F 30.45 in North 4.3 mph 9 mph 73.4% 0.00 in 554 W/m2
14:09 63.4 °F 55.3 °F 30.45 in North 3.7 mph 10 mph 72.4% 0.00 in 555 W/m2
14:14 63.2 °F 55 °F 30.45 in North 2.9 mph 7 mph 72% 0.00 in 540 W/m2
14:19 63.3 °F 55.1 °F 30.45 in NNW 3.5 mph 8 mph 72.2% 0.00 in 497 W/m2
14:24 62.9 °F 54.6 °F 30.44 in North 4.3 mph 10 mph 72% 0.00 in 510 W/m2
14:29 63.2 °F 55 °F 30.44 in North 3.5 mph 9 mph 72.2% 0.00 in 504 W/m2
14:34 62.8 °F 54.5 °F 30.44 in North 3.1 mph 9 mph 72% 0.00 in 91 W/m2
14:39 62.2 °F 54.3 °F 30.44 in NNW 2.8 mph 7 mph 73% 0.00 in 95 W/m2
14:44 62.4 °F 54.5 °F 30.44 in NNW 2.3 mph 7 mph 73% 0.00 in 468 W/m2
14:49 63.3 °F 54.9 °F 30.44 in NNE 4.6 mph 8 mph 71.6% 0.00 in 466 W/m2
14:54 63.7 °F 55 °F 30.44 in NNE 1.3 mph 7 mph 71% 0.00 in 366 W/m2
14:59 63.2 °F 54.7 °F 30.44 in North 4.4 mph 9 mph 71.2% 0.00 in 100 W/m2
15:04 62.8 °F 54.5 °F 30.44 in North 3.9 mph 9 mph 72% 0.00 in 425 W/m2
15:09 63 °F 54.7 °F 30.44 in NNW 4.8 mph 8 mph 72% 0.00 in 429 W/m2
15:14 63.1 °F 54.9 °F 30.44 in NNW 2.4 mph 7 mph 72% 0.00 in 406 W/m2
15:19 63.8 °F 54.7 °F 30.44 in North 6.4 mph 11 mph 70.2% 0.00 in 399 W/m2
15:24 63.2 °F 54.2 °F 30.44 in North 5.4 mph 10 mph 70% 0.00 in 392 W/m2
15:29 63.2 °F 54.2 °F 30.44 in NNW 3.8 mph 9 mph 70% 0.00 in 388 W/m2
15:34 63.2 °F 54.2 °F 30.44 in North 7.4 mph 11 mph 70% 0.00 in 366 W/m2
15:38 63.2 °F 54.3 °F 30.44 in North 4.7 mph 9 mph 70.3% 0.00 in 359 W/m2
15:44 63.4 °F 54.3 °F 30.44 in North 3.6 mph 7 mph 70% 0.00 in 350 W/m2
15:49 63.9 °F 54.8 °F 30.43 in NNE 4.4 mph 9 mph 70.2% 0.00 in 339 W/m2
15:54 63.6 °F 54.1 °F 30.43 in NNE 7.4 mph 12 mph 69% 0.00 in 330 W/m2
15:59 63.3 °F 54 °F 30.43 in North 6.7 mph 10 mph 69.4% 0.00 in 318 W/m2
16:04 63.2 °F 54.2 °F 30.44 in NNE 4.8 mph 10 mph 70% 0.00 in 316 W/m2
16:09 63.3 °F 54.3 °F 30.43 in NNE 3.9 mph 10 mph 70% 0.00 in 309 W/m2
16:14 63.8 °F 54.8 °F 30.43 in NNE 3.3 mph 10 mph 70.4% 0.00 in 290 W/m2
16:19 63.6 °F 54.1 °F 30.43 in North 4.5 mph 10 mph 69.2% 0.00 in 278 W/m2
16:24 63.5 °F 53.7 °F 30.44 in NNE 5.2 mph 11 mph 68.4% 0.00 in 265 W/m2
16:29 63.1 °F 53.2 °F 30.43 in North 5.2 mph 10 mph 68% 0.00 in 250 W/m2
16:34 63.1 °F 53.2 °F 30.43 in North 3.7 mph 9 mph 68% 0.00 in 232 W/m2
16:39 63.1 °F 53.4 °F 30.43 in North 4.2 mph 8 mph 68.4% 0.00 in 218 W/m2
16:44 63.2 °F 53.7 °F 30.43 in North 4 mph 9 mph 69% 0.00 in 200 W/m2
16:49 63 °F 53.4 °F 30.43 in North 6 mph 10 mph 69% 0.00 in 185 W/m2
16:54 62.8 °F 53.6 °F 30.43 in North 5.5 mph 9 mph 69.6% 0.00 in 172 W/m2
16:59 62.6 °F 53.8 °F 30.43 in North 4.5 mph 8 mph 70.6% 0.00 in 162 W/m2
17:04 62.8 °F 54.1 °F 30.43 in North 3 mph 7 mph 71% 0.00 in 151 W/m2
17:09 62.8 °F 54.1 °F 30.43 in North 4 mph 7 mph 71% 0.00 in 137 W/m2
17:14 62.7 °F 54 °F 30.43 in North 4.8 mph 8 mph 71% 0.00 in 125 W/m2
17:19 62.4 °F 53.8 °F 30.42 in North 4.1 mph 7 mph 71% 0.00 in 116 W/m2
17:24 62.4 °F 53.9 °F 30.42 in North 2.5 mph 7 mph 71.4% 0.00 in 104 W/m2
17:29 62.4 °F 54.1 °F 30.42 in North 3.3 mph 7 mph 72% 0.00 in 93 W/m2
17:34 62.2 °F 53.9 °F 30.42 in North 2.8 mph 7 mph 72% 0.00 in 76 W/m2
17:39 62.1 °F 53.8 °F 30.42 in North 1 mph 4 mph 72% 0.00 in 69 W/m2
17:44 62.1 °F 53.8 °F 30.42 in North 0.9 mph 4 mph 72% 0.00 in 53 W/m2
17:49 61.9 °F 53.6 °F 30.42 in North 2.1 mph 5 mph 72% 0.00 in 39 W/m2
17:54 61.7 °F 53.4 °F 30.42 in North 0.2 mph 3 mph 72% 0.00 in 33 W/m2
17:59 61.4 °F 53.2 °F 30.43 in North 2.6 mph 4 mph 72% 0.00 in 26 W/m2
18:04 61.2 °F 53.3 °F 30.43 in North 2.2 mph 5 mph 73% 0.00 in 21 W/m2
18:09 60.9 °F 53 °F 30.43 in North 0.4 mph 5 mph 73% 0.00 in 14 W/m2
18:14 60.5 °F 53.1 °F 30.43 in North 2 mph 4 mph 74% 0.00 in 12 W/m2
18:19 60.2 °F 52.9 °F 30.43 in Calm   3 mph 74.4% 0.00 in 11 W/m2
18:24 60 °F 53 °F 30.44 in North 0.6 mph 2 mph 75% 0.00 in 9 W/m2
18:29 59.6 °F 52.9 °F 30.44 in Calm   1 mph 75.6% 0.00 in 5 W/m2
18:34 59.4 °F 52.7 °F 30.44 in Calm     76% 0.00 in 0 W/m2
18:39 58.8 °F 52.4 °F 30.44 in North 0.5 mph 3 mph 76.8% 0.00 in 0 W/m2
18:44 58.5 °F 52.2 °F 30.44 in North 0.2 mph 2 mph 77% 0.00 in 0 W/m2
18:49 58.3 °F 52 °F 30.45 in North 0.2 mph 3 mph 77% 0.00 in 0 W/m2
18:54 57.9 °F 51.7 °F 30.45 in Calm   3 mph 77.4% 0.00 in 0 W/m2
18:59 57.6 °F 51.6 °F 30.45 in Calm     78% 0.00 in 0 W/m2
19:04 57.2 °F 51.3 °F 30.45 in Calm     78% 0.00 in 0 W/m2
19:09 56.8 °F 51.2 °F 30.45 in Calm   1 mph 78.8% 0.00 in 0 W/m2
19:14 56.7 °F 51.1 °F 30.45 in Calm   3 mph 79% 0.00 in 0 W/m2
19:19 56.3 °F 50.7 °F 30.45 in Calm   2 mph 79% 0.00 in 0 W/m2
19:24 55.8 °F 50.5 °F 30.45 in Calm     79.8% 0.00 in 0 W/m2
19:29 55.5 °F 50.3 °F 30.45 in Calm     80% 0.00 in 0 W/m2
19:34 55.2 °F 50.4 °F 30.45 in North 0.6 mph 3 mph 81% 0.00 in 0 W/m2
19:39 55.1 °F 50.3 °F 30.45 in North 0.9 mph 4 mph 81% 0.00 in 0 W/m2
19:44 55.2 °F 50.4 °F 30.45 in North 1.8 mph 5 mph 81% 0.00 in 0 W/m2
19:49 55.3 °F 50.4 °F 30.45 in North 1.6 mph 4 mph 80.8% 0.00 in 0 W/m2
19:54 55.6 °F 50.4 °F 30.45 in Calm   4 mph 80% 0.00 in 0 W/m2
19:59 55.8 °F 50.5 °F 30.46 in Calm   2 mph 80% 0.00 in 0 W/m2
20:04 55.7 °F 50.4 °F 30.46 in Calm     80% 0.00 in 0 W/m2
20:09 55.4 °F 50.4 °F 30.46 in Calm     80.8% 0.00 in 0 W/m2
20:14 55 °F 50.3 °F 30.46 in Calm     81.3% 0.00 in 0 W/m2
20:19 54.7 °F 50.2 °F 30.46 in Calm     82% 0.00 in 0 W/m2
20:24 54.7 °F 50.2 °F 30.46 in Calm     82% 0.00 in 0 W/m2
20:29 54.3 °F 50 °F 30.46 in Calm     82.4% 0.00 in 0 W/m2
20:34 54.1 °F 49.9 °F 30.46 in Calm     83% 0.00 in 0 W/m2
20:39 53.7 °F 49.5 °F 30.46 in Calm     83% 0.00 in 0 W/m2
20:44 53.3 °F 49.5 °F 30.46 in Calm     83.8% 0.00 in 0 W/m2
20:49 53.1 °F 49.3 °F 30.47 in Calm     84% 0.00 in 0 W/m2
20:54 52.9 °F 49.1 °F 30.47 in Calm     84% 0.00 in 0 W/m2
20:59 52.7 °F 49.3 °F 30.47 in Calm     85% 0.00 in 0 W/m2
21:04 52.9 °F 49.5 °F 30.47 in Calm     85% 0.00 in 0 W/m2
21:09 52.5 °F 49.1 °F 30.47 in North 0.4 mph 3 mph 85% 0.00 in 0 W/m2
21:14 52.3 °F 48.9 °F 30.48 in North 2.8 mph 8 mph 85% 0.00 in 0 W/m2
21:19 52.8 °F 49.4 °F 30.48 in North 2.9 mph 6 mph 85% 0.00 in 0 W/m2
21:24 53.3 °F 49.6 °F 30.48 in North 0.9 mph 5 mph 84.2% 0.00 in 0 W/m2
21:29 53.7 °F 49.4 °F 30.48 in North 3.6 mph 6 mph 82.6% 0.00 in 0 W/m2
21:34 54.1 °F 49.3 °F 30.48 in North 3.4 mph 8 mph 81.3% 0.00 in 0 W/m2
21:39 54.3 °F 49.1 °F 30.48 in North 4.6 mph 8 mph 80.2% 0.00 in 0 W/m2
21:44 54.3 °F 48.7 °F 30.48 in North 2.9 mph 8 mph 79% 0.00 in 0 W/m2
21:49 54.3 °F 48.7 °F 30.48 in NNE 4.1 mph 9 mph 79% 0.00 in 0 W/m2
21:54 54.2 °F 48.5 °F 30.48 in NNE 5.4 mph 10 mph 78.2% 0.00 in 0 W/m2
21:59 54.1 °F 48.4 °F 30.48 in NNE 4 mph 10 mph 78% 0.00 in 0 W/m2
22:04 54 °F 48.2 °F 30.49 in NNE 1.6 mph 9 mph 78% 0.00 in 0 W/m2
22:09 53.9 °F 48.1 °F 30.48 in NNE 1.4 mph 7 mph 78% 0.00 in 0 W/m2
22:14 53.8 °F 48 °F 30.48 in NNE 2.4 mph 4 mph 78% 0.00 in 0 W/m2
22:19 53.4 °F 47.7 °F 30.49 in NNE 1.9 mph 6 mph 78% 0.00 in 0 W/m2
22:24 53.4 °F 47.7 °F 30.49 in NNE 2.9 mph 6 mph 78% 0.00 in 0 W/m2
22:29 53.2 °F 47.5 °F 30.49 in NNE 1.2 mph 4 mph 78% 0.00 in 0 W/m2
22:34 53.1 °F 47.3 °F 30.49 in Calm   1 mph 78% 0.00 in 0 W/m2
22:39 52.9 °F 47.1 °F 30.49 in Calm   1 mph 78% 0.00 in 0 W/m2
22:44 52.8 °F 47 °F 30.49 in Calm     78% 0.00 in 0 W/m2
22:48 52.5 °F 47 °F 30.49 in Calm     78.5% 0.00 in 0 W/m2
22:54 52.3 °F 46.9 °F 30.50 in Calm     79% 0.00 in 0 W/m2
22:59 52.2 °F 46.8 °F 30.49 in Calm     79% 0.00 in 0 W/m2
23:04 51.9 °F 46.8 °F 30.49 in Calm     80% 0.00 in 0 W/m2
23:09 51.6 °F 46.6 °F 30.49 in Calm     80% 0.00 in 0 W/m2
23:14 51.3 °F 46.4 °F 30.49 in Calm     80.4% 0.00 in 0 W/m2
23:19 50.9 °F 46.2 °F 30.49 in Calm     81% 0.00 in 0 W/m2
23:24 50.6 °F 46.2 °F 30.50 in Calm     81.8% 0.00 in 0 W/m2
23:29 50.4 °F 46.1 °F 30.50 in Calm     82.2% 0.00 in 0 W/m2
23:34 50.3 °F 46.1 °F 30.50 in Calm     83% 0.00 in 0 W/m2
23:39 49.8 °F 45.7 °F 30.50 in Calm     83% 0.00 in 0 W/m2
23:44 49.6 °F 45.6 °F 30.49 in Calm     83.2% 0.00 in 0 W/m2
23:49 49.5 °F 45.7 °F 30.49 in Calm     84% 0.00 in 0 W/m2
23:54 49.1 °F 45.3 °F 30.49 in Calm     84% 0.00 in 0 W/m2
23:59 48.7 °F 45.2 °F 30.49 in Calm     84.8% 0.00 in 0 W/m2
Bath Spa Weather
Compliments of Weather Underground - 2 mb